Time;durP1;ratioP1;P1;durP2;ratioP2;P2;SDS_P1;SDS_P2;PMS_P1;PMS_P2;Temp;Humidity;BMP_temperature;BMP_pressure;BME280_temperature;BME280_humidity;BME280_pressure;Samples;Min_cycle;Max_cycle;Signal;HPM_P1;HPM_P2
2024/02/14 00:01:33;;;;;;;;;;;;;;;6.61;100.00;100176.88;109209;1253;60191;-64
2024/02/14 00:04:01;;;;;;;;;;;;;;;6.60;100.00;100181.52;109182;1253;74157;-64
2024/02/14 00:06:29;;;;;;;;;;;;;;;6.59;100.00;100183.23;109208;1253;66277;-65
2024/02/14 00:08:56;;;;;;;;;;;;;;;6.58;100.00;100185.64;109139;1253;72786;-60
2024/02/14 00:11:24;;;;;;;;;;;;;;;6.56;100.00;100183.52;109267;1254;61753;-61
2024/02/14 00:13:52;;;;;;;;;;;;;;;6.56;100.00;100182.19;109307;1253;59950;-65
2024/02/14 00:16:19;;;;;;;;;;;;;;;6.55;100.00;100180.37;109232;1252;75540;-61
2024/02/14 00:18:46;;;;;;;;;;;;;;;6.53;100.00;100179.20;109274;1252;66921;-62
2024/02/14 00:21:14;;;;;;;;;;;;;;;6.52;100.00;100178.44;109244;1253;73046;-64
2024/02/14 00:23:42;;;;;;;;;;;;;;;6.51;100.00;100184.43;109204;1254;60371;-61
2024/02/14 00:26:09;;;;;;;;;;;;;;;6.52;100.00;100187.95;109344;1253;60016;-61
2024/02/14 00:28:37;;;;;;;;;;;;;;;6.52;100.00;100190.20;109246;1254;74251;-61
2024/02/14 00:31:04;;;;;;;;;;;;;;;6.52;100.00;100194.18;109244;1253;67082;-61
2024/02/14 00:33:32;;;;;;;;;;;;;;;6.51;100.00;100194.42;109240;1254;72744;-61
2024/02/14 00:36:00;;;;;;;;;;;;;;;6.50;100.00;100192.13;109293;1257;61832;-62
2024/02/14 00:38:27;;;;;;;;;;;;;;;6.48;100.00;100192.16;109248;1254;59906;-64
2024/02/14 00:40:55;;;;;;;;;;;;;;;6.47;100.00;100191.41;109272;1259;75548;-60
2024/02/14 00:43:22;;;;;;;;;;;;;;;6.46;100.00;100188.23;109249;1253;65023;-62
2024/02/14 00:45:50;;;;;;;;;;;;;;;6.45;100.00;100188.88;109291;1252;71135;-61
2024/02/14 00:48:17;;;;;;;;;;;;;;;6.44;100.00;100190.88;109238;1253;59762;-63
2024/02/14 00:50:45;;;;;;;;;;;;;;;6.44;100.00;100192.92;109258;1253;59695;-62
2024/02/14 00:53:13;;;;;;;;;;;;;;;6.43;100.00;100195.13;109114;1254;75553;-62
2024/02/14 00:55:41;;;;;;;;;;;;;;;6.41;100.00;100195.84;109185;1254;66956;-63
2024/02/14 00:58:08;;;;;;;;;;;;;;;6.40;100.00;100196.60;109140;1256;72593;-60
2024/02/14 01:00:36;;;;;;;;;;;;;;;6.39;100.00;100190.93;109331;1256;61690;-61
2024/02/14 01:03:03;;;;;;;;;;;;;;;6.37;100.00;100190.23;109185;1253;59699;-63
2024/02/14 01:05:31;;;;;;;;;;;;;;;6.36;100.00;100189.45;109274;1253;74260;-60
2024/02/14 01:07:59;;;;;;;;;;;;;;;6.35;100.00;100187.68;109193;1254;67478;-64
2024/02/14 01:10:26;;;;;;;;;;;;;;;6.35;100.00;100183.67;109172;1254;72855;-61
2024/02/14 01:12:55;;;;;;;;;;;;;;;6.33;100.00;100182.30;109210;1255;60136;-60
2024/02/14 01:15:22;;;;;;;;;;;;;;;6.32;100.00;100183.43;109223;1253;59917;-63
2024/02/14 01:17:50;;;;;;;;;;;;;;;6.30;100.00;100181.04;109224;1253;75544;-62
2024/02/14 01:20:18;;;;;;;;;;;;;;;6.31;100.00;100181.88;109364;1253;67059;-62
2024/02/14 01:22:46;;;;;;;;;;;;;;;6.31;100.00;100184.77;109219;1253;72762;-60
2024/02/14 01:25:13;;;;;;;;;;;;;;;6.30;100.00;100183.46;109158;1253;61712;-63
2024/02/14 01:27:42;;;;;;;;;;;;;;;6.30;100.00;100181.98;109222;1254;59910;-62
2024/02/14 01:30:10;;;;;;;;;;;;;;;6.30;100.00;100174.86;109381;1254;75410;-63
2024/02/14 01:32:38;;;;;;;;;;;;;;;6.30;100.00;100170.73;109207;1258;67378;-65
2024/02/14 01:35:06;;;;;;;;;;;;;;;6.29;100.00;100174.29;109217;1254;72747;-64
2024/02/14 01:37:34;;;;;;;;;;;;;;;6.27;100.00;100181.19;109165;1253;62301;-62
2024/02/14 01:40:03;;;;;;;;;;;;;;;6.27;100.00;100188.63;109241;1253;59771;-63
2024/02/14 01:42:30;;;;;;;;;;;;;;;6.26;100.00;100191.87;109177;1254;75064;-62
2024/02/14 01:44:58;;;;;;;;;;;;;;;6.25;100.00;100195.74;109317;1256;66842;-64
2024/02/14 01:47:25;;;;;;;;;;;;;;;6.24;100.00;100196.73;109174;1253;72747;-66
2024/02/14 01:49:53;;;;;;;;;;;;;;;6.24;100.00;100202.36;109358;1253;60513;-64
2024/02/14 01:52:22;;;;;;;;;;;;;;;6.25;100.00;100199.20;109256;1253;59771;-62
2024/02/14 01:54:49;;;;;;;;;;;;;;;6.24;100.00;100194.96;109145;1254;75491;-62
2024/02/14 01:57:17;;;;;;;;;;;;;;;6.24;100.00;100203.63;109224;1254;66913;-63
2024/02/14 01:59:44;;;;;;;;;;;;;;;6.23;100.00;100208.39;109220;1253;71404;-62
2024/02/14 02:02:13;;;;;;;;;;;;;;;6.20;100.00;100204.39;109227;1254;61653;-64
2024/02/14 02:04:40;;;;;;;;;;;;;;;6.17;100.00;100206.62;109168;1254;60078;-61
2024/02/14 02:07:08;;;;;;;;;;;;;;;6.13;100.00;100211.51;109228;1254;75506;-62
2024/02/14 02:09:35;;;;;;;;;;;;;;;6.09;100.00;100208.55;109205;1254;67084;-63
2024/02/14 02:12:07;;;;;;;;;;;;;;;6.06;100.00;100205.42;109203;1254;71512;-61
2024/02/14 02:14:35;;;;;;;;;;;;;;;6.03;100.00;100204.38;109168;1257;60396;-64
2024/02/14 02:17:07;;;;;;;;;;;;;;;5.98;100.00;100206.23;109269;1254;60328;-61
2024/02/14 02:19:36;;;;;;;;;;;;;;;5.95;100.00;100202.89;109221;1253;75121;-63
2024/02/14 02:22:04;;;;;;;;;;;;;;;5.91;100.00;100204.66;109254;1253;67159;-61
2024/02/14 02:24:32;;;;;;;;;;;;;;;5.87;100.00;100199.42;109173;1254;73120;-62
2024/02/14 02:26:59;;;;;;;;;;;;;;;5.84;100.00;100205.02;109204;1253;61779;-63
2024/02/14 02:29:27;;;;;;;;;;;;;;;5.82;100.00;100204.67;109249;1253;59769;-63
2024/02/14 02:31:55;;;;;;;;;;;;;;;5.82;100.00;100205.41;109208;1253;75459;-63
2024/02/14 02:34:22;;;;;;;;;;;;;;;5.80;100.00;100205.54;109218;1253;67284;-63
2024/02/14 02:36:51;;;;;;;;;;;;;;;5.79;100.00;100211.02;109185;1257;72753;-68
2024/02/14 02:39:18;;;;;;;;;;;;;;;5.79;100.00;100211.02;109207;1257;60491;-66
2024/02/14 02:41:48;;;;;;;;;;;;;;;5.79;100.00;100217.96;109273;1253;60255;-62
2024/02/14 02:44:16;;;;;;;;;;;;;;;5.78;100.00;100223.20;109208;1253;75609;-63
2024/02/14 02:46:45;;;;;;;;;;;;;;;5.78;100.00;100226.34;109185;1254;66966;-69
2024/02/14 02:49:16;;;;;;;;;;;;;;;5.78;100.00;100226.02;109241;1254;72682;-64
2024/02/14 02:51:44;;;;;;;;;;;;;;;5.76;100.00;100224.10;109245;1253;61755;-62
2024/02/14 02:54:11;;;;;;;;;;;;;;;5.75;100.00;100215.94;109231;1253;59823;-64
2024/02/14 02:56:40;;;;;;;;;;;;;;;5.76;100.00;100213.98;109276;1254;75923;-63
2024/02/14 02:59:08;;;;;;;;;;;;;;;5.76;100.00;100214.30;109261;1254;65961;-64
2024/02/14 03:01:36;;;;;;;;;;;;;;;5.75;100.00;100212.64;109272;1253;72388;-63
2024/02/14 03:04:03;;;;;;;;;;;;;;;5.75;100.00;100216.76;109285;1254;61767;-63
2024/02/14 03:06:31;;;;;;;;;;;;;;;5.75;100.00;100219.17;109332;1254;59652;-64
2024/02/14 03:08:58;;;;;;;;;;;;;;;5.75;100.00;100215.06;109260;1253;75455;-63
2024/02/14 03:11:27;;;;;;;;;;;;;;;5.75;100.00;100211.80;109437;1252;66986;-61
2024/02/14 03:13:54;;;;;;;;;;;;;;;5.74;100.00;100211.09;109252;1253;72741;-61
2024/02/14 03:16:24;;;;;;;;;;;;;;;5.73;100.00;100208.85;109288;1253;60475;-61
2024/02/14 03:18:53;;;;;;;;;;;;;;;5.73;100.00;100205.66;109325;1252;59733;-63
2024/02/14 03:21:22;;;;;;;;;;;;;;;5.72;100.00;100208.81;109262;1253;74907;-61
2024/02/14 03:23:49;;;;;;;;;;;;;;;5.72;100.00;100210.55;109345;1253;66161;-61
2024/02/14 03:26:18;;;;;;;;;;;;;;;5.71;100.00;100213.10;109488;1254;71396;-61
2024/02/14 03:28:45;;;;;;;;;;;;;;;5.69;100.00;100213.59;109294;1253;61736;-61
2024/02/14 03:31:15;;;;;;;;;;;;;;;5.68;100.00;100216.28;109273;1253;59952;-61
2024/02/14 03:33:43;;;;;;;;;;;;;;;5.68;100.00;100220.23;109296;1254;75620;-61
2024/02/14 03:36:12;;;;;;;;;;;;;;;5.67;100.00;100222.06;109333;1253;67117;-61
2024/02/14 03:38:41;;;;;;;;;;;;;;;5.66;100.00;100223.36;109300;1253;72773;-62
2024/02/14 03:41:08;;;;;;;;;;;;;;;5.65;100.00;100220.19;109282;1252;62029;-61
2024/02/14 03:43:36;;;;;;;;;;;;;;;5.65;100.00;100222.33;109313;1252;59659;-61
2024/02/14 03:46:04;;;;;;;;;;;;;;;5.64;100.00;100226.15;109321;1253;73641;-61
2024/02/14 03:48:32;;;;;;;;;;;;;;;5.64;100.00;100226.70;109306;1254;67270;-61
2024/02/14 03:51:00;;;;;;;;;;;;;;;5.59;100.00;100231.60;109265;1253;72738;-61
2024/02/14 03:53:27;;;;;;;;;;;;;;;5.63;100.00;100234.92;109280;1253;60441;-61
2024/02/14 03:55:55;;;;;;;;;;;;;;;5.64;100.00;100240.83;109322;1252;59932;-61
2024/02/14 03:58:23;;;;;;;;;;;;;;;5.63;100.00;100241.95;109277;1253;75929;-61
2024/02/14 04:00:52;;;;;;;;;;;;;;;5.63;100.00;100240.43;109316;1252;66784;-61
2024/02/14 04:03:19;;;;;;;;;;;;;;;5.62;100.00;100240.14;109262;1253;72797;-61
2024/02/14 04:05:47;;;;;;;;;;;;;;;5.61;100.00;100242.11;109298;1253;60467;-62
2024/02/14 04:08:15;;;;;;;;;;;;;;;5.59;100.00;100245.80;109311;1253;59813;-60
2024/02/14 04:10:44;;;;;;;;;;;;;;;5.59;100.00;100245.21;109361;1253;75522;-61
2024/02/14 04:13:11;;;;;;;;;;;;;;;5.60;100.00;100247.59;109295;1253;67546;-61
2024/02/14 04:15:39;;;;;;;;;;;;;;;5.58;100.00;100248.61;109339;1252;72774;-61
2024/02/14 04:18:06;;;;;;;;;;;;;;;5.58;100.00;100251.42;109303;1253;61695;-62
2024/02/14 04:20:34;;;;;;;;;;;;;;;5.55;100.00;100256.66;109219;1254;59910;-61
2024/02/14 04:23:04;;;;;;;;;;;;;;;5.51;100.00;100256.86;109222;1253;75487;-64
2024/02/14 04:25:32;;;;;;;;;;;;;;;5.50;100.00;100252.56;109301;1253;65692;-61
2024/02/14 04:28:00;;;;;;;;;;;;;;;5.49;100.00;100253.55;109278;1253;72881;-61
2024/02/14 04:30:27;;;;;;;;;;;;;;;5.46;100.00;100251.54;109268;1253;61758;-63
2024/02/14 04:32:55;;;;;;;;;;;;;;;5.45;100.00;100250.95;109206;1252;60096;-63
2024/02/14 04:35:22;;;;;;;;;;;;;;;5.40;100.00;100252.11;109274;1252;75559;-61
2024/02/14 04:37:51;;;;;;;;;;;;;;;5.36;100.00;100251.44;109284;1253;66962;-61
2024/02/14 04:40:19;;;;;;;;;;;;;;;5.33;100.00;100255.70;109424;1253;72347;-61
2024/02/14 04:42:46;;;;;;;;;;;;;;;5.31;100.00;100255.44;109292;1253;61767;-61
2024/02/14 04:45:14;;;;;;;;;;;;;;;5.30;100.00;100258.14;109126;1254;61924;-61
2024/02/14 04:47:42;;;;;;;;;;;;;;;5.27;100.00;100258.91;109312;1250;74614;-61
2024/02/14 04:50:10;;;;;;;;;;;;;;;5.27;100.00;100266.84;109358;1252;66940;-61
2024/02/14 04:52:38;;;;;;;;;;;;;;;5.28;100.00;100273.48;109340;1251;72404;-61
2024/02/14 04:55:05;;;;;;;;;;;;;;;5.29;100.00;100279.72;109343;1253;61756;-61
2024/02/14 04:57:35;;;;;;;;;;;;;;;5.31;100.00;100282.84;109311;1253;60322;-60
2024/02/14 05:00:05;;;;;;;;;;;;;;;5.32;100.00;100285.65;109343;1251;73760;-61
2024/02/14 05:02:32;;;;;;;;;;;;;;;5.33;100.00;100285.17;109420;1251;68218;-61
2024/02/14 05:05:01;;;;;;;;;;;;;;;5.32;100.00;100294.25;109329;1251;72781;-64
2024/02/14 05:07:29;;;;;;;;;;;;;;;5.33;100.00;100301.34;109355;1251;59775;-61
2024/02/14 05:09:56;;;;;;;;;;;;;;;5.37;100.00;100300.34;109457;1251;59732;-61
2024/02/14 05:12:25;;;;;;;;;;;;;;;5.39;100.00;100304.31;109408;1251;75533;-60
2024/02/14 05:14:52;;;;;;;;;;;;;;;5.40;100.00;100300.53;109395;1251;65615;-61
2024/02/14 05:17:20;;;;;;;;;;;;;;;5.43;100.00;100303.35;109349;1251;71091;-61
2024/02/14 05:19:48;;;;;;;;;;;;;;;5.48;100.00;100301.73;109368;1251;60505;-61
2024/02/14 05:22:15;;;;;;;;;;;;;;;5.52;100.00;100303.53;109410;1251;59755;-61
2024/02/14 05:24:43;;;;;;;;;;;;;;;5.54;100.00;100301.94;109301;1250;75511;-61
2024/02/14 05:27:10;;;;;;;;;;;;;;;5.55;100.00;100303.73;109237;1254;66872;-62
2024/02/14 05:29:38;;;;;;;;;;;;;;;5.58;100.00;100303.11;109413;1251;71094;-61
2024/02/14 05:32:09;;;;;;;;;;;;;;;5.60;100.00;100307.16;109403;1251;60466;-60
2024/02/14 05:34:36;;;;;;;;;;;;;;;5.65;100.00;100307.27;109476;1251;59745;-61
2024/02/14 05:37:05;;;;;;;;;;;;;;;5.70;100.00;100306.77;109385;1251;74136;-63
2024/02/14 05:39:33;;;;;;;;;;;;;;;5.74;100.00;100303.98;109408;1251;66160;-61
2024/02/14 05:42:01;;;;;;;;;;;;;;;5.77;100.00;100305.71;109398;1251;72749;-61
2024/02/14 05:44:30;;;;;;;;;;;;;;;5.81;100.00;100307.09;109348;1251;60536;-61
2024/02/14 05:46:57;;;;;;;;;;;;;;;5.85;100.00;100308.72;109298;1250;59776;-61
2024/02/14 05:49:25;;;;;;;;;;;;;;;5.90;100.00;100314.34;109382;1251;74226;-61
2024/02/14 05:51:53;;;;;;;;;;;;;;;5.94;100.00;100315.14;109434;1250;66966;-60
2024/02/14 05:54:21;;;;;;;;;;;;;;;5.97;100.00;100316.88;109382;1252;71540;-61
2024/02/14 05:56:48;;;;;;;;;;;;;;;6.01;100.00;100321.84;109414;1251;60457;-61
2024/02/14 05:59:16;;;;;;;;;;;;;;;6.05;100.00;100323.00;109352;1251;60260;-61
2024/02/14 06:01:43;;;;;;;;;;;;;;;6.08;100.00;100325.46;109377;1251;75528;-61
2024/02/14 06:04:11;;;;;;;;;;;;;;;6.13;100.00;100327.27;109393;1251;65865;-62
2024/02/14 06:06:38;;;;;;;;;;;;;;;6.17;100.00;100326.13;109401;1251;71233;-61
2024/02/14 06:09:09;;;;;;;;;;;;;;;6.19;100.00;100325.59;109382;1251;61729;-63
2024/02/14 06:11:40;;;;;;;;;;;;;;;6.21;100.00;100325.62;109412;1251;59783;-61
2024/02/14 06:14:08;;;;;;;;;;;;;;;6.23;100.00;100330.20;109372;1251;75519;-60
2024/02/14 06:16:36;;;;;;;;;;;;;;;6.27;100.00;100327.77;109375;1251;65773;-61
2024/02/14 06:19:04;;;;;;;;;;;;;;;6.29;100.00;100332.52;109416;1251;71896;-61
2024/02/14 06:21:32;;;;;;;;;;;;;;;6.33;100.00;100330.94;109353;1251;60654;-61
2024/02/14 06:24:00;;;;;;;;;;;;;;;6.33;100.00;100331.77;109384;1251;59671;-61
2024/02/14 06:26:28;;;;;;;;;;;;;;;6.34;100.00;100325.84;109286;1250;77443;-62
2024/02/14 06:28:55;;;;;;;;;;;;;;;6.38;100.00;100327.21;109424;1251;66731;-60
2024/02/14 06:31:23;;;;;;;;;;;;;;;6.42;100.00;100334.16;109350;1251;72772;-63
2024/02/14 06:33:51;;;;;;;;;;;;;;;6.45;100.00;100332.52;109387;1251;60438;-62
2024/02/14 06:36:19;;;;;;;;;;;;;;;6.49;100.00;100331.22;109400;1251;59734;-64
2024/02/14 06:38:46;;;;;;;;;;;;;;;6.54;100.00;100331.77;109363;1253;74651;-63
2024/02/14 06:41:14;;;;;;;;;;;;;;;6.61;100.00;100337.29;109380;1250;65675;-61
2024/02/14 06:43:42;;;;;;;;;;;;;;;6.66;100.00;100336.02;109355;1252;71463;-64
2024/02/14 06:46:09;;;;;;;;;;;;;;;6.72;100.00;100335.76;109351;1251;63970;-61
2024/02/14 06:48:37;;;;;;;;;;;;;;;6.78;100.00;100334.64;109376;1252;59918;-63
2024/02/14 06:51:06;;;;;;;;;;;;;;;6.86;100.00;100333.31;109348;1252;74542;-63
2024/02/14 06:53:34;;;;;;;;;;;;;;;6.94;100.00;100334.41;109365;1252;66283;-60
2024/02/14 06:56:02;;;;;;;;;;;;;;;7.00;100.00;100336.21;109317;1252;72687;-63
2024/02/14 06:58:30;;;;;;;;;;;;;;;7.02;100.00;100333.59;109308;1253;61731;-61
2024/02/14 07:00:57;;;;;;;;;;;;;;;7.09;100.00;100332.41;109342;1252;60181;-64
2024/02/14 07:03:25;;;;;;;;;;;;;;;7.16;100.00;100335.48;109311;1252;73688;-65
2024/02/14 07:05:52;;;;;;;;;;;;;;;7.24;100.00;100333.06;109341;1253;67102;-66
2024/02/14 07:08:20;;;;;;;;;;;;;;;7.37;100.00;100336.05;109361;1253;73219;-64
2024/02/14 07:10:47;;;;;;;;;;;;;;;7.55;100.00;100338.13;109291;1253;59818;-65
2024/02/14 07:13:15;;;;;;;;;;;;;;;7.69;100.00;100344.05;109334;1252;59800;-63
2024/02/14 07:15:42;;;;;;;;;;;;;;;7.76;100.00;100344.48;109317;1252;75474;-66
2024/02/14 07:18:10;;;;;;;;;;;;;;;7.81;100.00;100347.08;109314;1253;66971;-63
2024/02/14 07:20:38;;;;;;;;;;;;;;;7.86;100.00;100351.40;109319;1251;72720;-63
2024/02/14 07:23:06;;;;;;;;;;;;;;;7.93;100.00;100350.45;109359;1254;60125;-66
2024/02/14 07:25:33;;;;;;;;;;;;;;;8.09;100.00;100347.02;109334;1252;60185;-63
2024/02/14 07:28:00;;;;;;;;;;;;;;;8.29;100.00;100344.69;109308;1252;75550;-63
2024/02/14 07:30:28;;;;;;;;;;;;;;;8.47;100.00;100345.23;109353;1253;67048;-63
2024/02/14 07:32:56;;;;;;;;;;;;;;;8.58;100.00;100337.84;109328;1252;72537;-64
2024/02/14 07:35:24;;;;;;;;;;;;;;;8.69;100.00;100327.77;109301;1251;60233;-64
2024/02/14 07:37:51;;;;;;;;;;;;;;;8.91;100.00;100329.13;109281;1252;59862;-63
2024/02/14 07:40:19;;;;;;;;;;;;;;;9.20;100.00;100322.13;109307;1252;76345;-62
2024/02/14 07:42:46;;;;;;;;;;;;;;;9.46;100.00;100328.64;109338;1252;65648;-64
2024/02/14 07:45:14;;;;;;;;;;;;;;;9.84;100.00;100334.45;109343;1252;73150;-63
2024/02/14 07:47:42;;;;;;;;;;;;;;;10.25;100.00;100328.31;109427;1253;60212;-67
2024/02/14 07:50:09;;;;;;;;;;;;;;;10.56;100.00;100331.28;109285;1252;60979;-63
2024/02/14 07:52:37;;;;;;;;;;;;;;;10.75;100.00;100321.86;109326;1252;74300;-63
2024/02/14 07:55:05;;;;;;;;;;;;;;;10.91;100.00;100320.03;109303;1252;65571;-62
2024/02/14 07:57:32;;;;;;;;;;;;;;;11.16;100.00;100308.86;109324;1253;71344;-62
2024/02/14 08:00:00;;;;;;;;;;;;;;;11.51;100.00;100304.54;109284;1252;59830;-62
2024/02/14 08:02:30;;;;;;;;;;;;;;;11.87;100.00;100291.98;109318;1255;59732;-62
2024/02/14 08:04:58;;;;;;;;;;;;;;;12.11;100.00;100278.72;109342;1252;76631;-61
2024/02/14 08:07:25;;;;;;;;;;;;;;;12.32;100.00;100272.56;109347;1253;66899;-61
2024/02/14 08:09:54;;;;;;;;;;;;;;;12.54;100.00;100261.76;109287;1252;74365;-61
2024/02/14 08:12:22;;;;;;;;;;;;;;;12.67;100.00;100251.73;109300;1253;59687;-65
2024/02/14 08:14:50;;;;;;;;;;;;;;;12.82;100.00;100246.84;109367;1252;59717;-62
2024/02/14 08:17:17;;;;;;;;;;;;;;;12.98;100.00;100242.64;109338;1253;74245;-66
2024/02/14 08:19:45;;;;;;;;;;;;;;;13.06;100.00;100232.91;109345;1251;65691;-64
2024/02/14 08:22:13;;;;;;;;;;;;;;;13.14;100.00;100229.98;109292;1253;76374;-67
2024/02/14 08:24:40;;;;;;;;;;;;;;;13.20;100.00;100222.14;109317;1253;60077;-66
2024/02/14 08:27:08;;;;;;;;;;;;;;;13.30;100.00;100225.10;109354;1251;59969;-65
2024/02/14 08:29:35;;;;;;;;;;;;;;;13.45;100.00;100227.73;109315;1253;75886;-61
2024/02/14 08:32:04;;;;;;;;;;;;;;;13.52;100.00;100224.63;109275;1253;67296;-66
2024/02/14 08:34:32;;;;;;;;;;;;;;;13.55;100.00;100220.42;109343;1252;75365;-64
2024/02/14 08:37:00;;;;;;;;;;;;;;;13.58;100.00;100219.30;109335;1252;60192;-65
2024/02/14 08:39:27;;;;;;;;;;;;;;;13.60;100.00;100216.77;109328;1252;61272;-61
2024/02/14 08:41:55;;;;;;;;;;;;;;;13.61;100.00;100213.85;109381;1252;77351;-68
2024/02/14 08:44:23;;;;;;;;;;;;;;;13.64;100.00;100209.94;109318;1252;69243;-65
2024/02/14 08:46:50;;;;;;;;;;;;;;;13.73;100.00;100216.20;109335;1252;72758;-61
2024/02/14 08:49:18;;;;;;;;;;;;;;;13.86;100.00;100215.30;109339;1252;62960;-63
2024/02/14 08:51:47;;;;;;;;;;;;;;;14.08;100.00;100215.19;109348;1252;59924;-65
2024/02/14 08:54:15;;;;;;;;;;;;;;;14.30;100.00;100213.61;109306;1253;75569;-63
2024/02/14 08:56:43;;;;;;;;;;;;;;;14.44;100.00;100212.88;109392;1252;66938;-65
2024/02/14 08:59:11;;;;;;;;;;;;;;;14.49;100.00;100209.64;109357;1252;74737;-64
2024/02/14 09:01:38;;;;;;;;;;;;;;;14.50;100.00;100208.15;109331;1252;59927;-61
2024/02/14 09:04:06;;;;;;;;;;;;;;;14.42;100.00;100208.89;109386;1252;60664;-71
2024/02/14 09:06:34;;;;;;;;;;;;;;;14.26;100.00;100206.93;109325;1254;75514;-64
2024/02/14 09:09:02;;;;;;;;;;;;;;;14.12;100.00;100202.46;109376;1252;69787;-64
2024/02/14 09:11:31;;;;;;;;;;;;;;;13.94;100.00;100212.02;109404;1252;72383;-63
2024/02/14 09:14:04;;;;;;;;;;;;;;;13.79;100.00;100207.41;109356;1253;60166;-61
2024/02/14 09:16:35;;;;;;;;;;;;;;;13.69;100.00;100206.98;109350;1254;62169;-62
2024/02/14 09:19:05;;;;;;;;;;;;;;;13.67;100.00;100210.42;109393;1253;76542;-60
2024/02/14 09:21:34;;;;;;;;;;;;;;;13.78;100.00;100212.29;109371;1252;69559;-63
2024/02/14 09:24:02;;;;;;;;;;;;;;;13.96;100.00;100209.91;109376;1252;71560;-60
2024/02/14 09:26:30;;;;;;;;;;;;;;;14.18;100.00;100207.05;109337;1252;63020;-62
2024/02/14 09:28:58;;;;;;;;;;;;;;;14.30;100.00;100203.50;109407;1252;60337;-60
2024/02/14 09:31:25;;;;;;;;;;;;;;;14.37;100.00;100198.89;109263;1253;76869;-59
2024/02/14 09:33:56;;;;;;;;;;;;;;;14.44;100.00;100196.48;109384;1251;68723;-60
2024/02/14 09:36:24;;;;;;;;;;;;;;;14.53;100.00;100193.93;109306;1253;74870;-60
2024/02/14 09:38:53;;;;;;;;;;;;;;;14.54;100.00;100193.48;109340;1252;60379;-60
2024/02/14 09:41:22;;;;;;;;;;;;;;;14.45;100.00;100197.26;109365;1252;60887;-61
2024/02/14 09:43:50;;;;;;;;;;;;;;;14.33;100.00;100195.05;109301;1253;74186;-62
2024/02/14 09:46:17;;;;;;;;;;;;;;;14.34;100.00;100193.79;109225;1254;65670;-62
2024/02/14 09:48:45;;;;;;;;;;;;;;;14.42;100.00;100194.60;109346;1253;71458;-61
2024/02/14 09:51:13;;;;;;;;;;;;;;;14.46;100.00;100191.92;109302;1252;61098;-62
2024/02/14 09:53:41;;;;;;;;;;;;;;;14.55;100.00;100192.58;109274;1253;59792;-61
2024/02/14 09:56:10;;;;;;;;;;;;;;;14.70;100.00;100191.41;109226;1253;76887;-68
2024/02/14 09:58:38;;;;;;;;;;;;;;;14.74;100.00;100190.86;109227;1255;67967;-63
2024/02/14 10:01:06;;;;;;;;;;;;;;;14.63;100.00;100187.30;109264;1253;74857;-65
2024/02/14 10:03:35;;;;;;;;;;;;;;;14.52;100.00;100190.27;109224;1253;63413;-64
2024/02/14 10:06:04;;;;;;;;;;;;;;;14.42;100.00;100190.33;109076;1253;59795;-69
2024/02/14 10:08:32;;;;;;;;;;;;;;;14.28;100.00;100189.55;109270;1253;74741;-65
2024/02/14 10:11:00;;;;;;;;;;;;;;;14.17;100.00;100185.33;109238;1253;69264;-61
2024/02/14 10:13:28;;;;;;;;;;;;;;;14.08;100.00;100182.77;109220;1255;73922;-63
2024/02/14 10:15:56;;;;;;;;;;;;;;;13.95;100.00;100184.98;109208;1253;62369;-68
2024/02/14 10:18:24;;;;;;;;;;;;;;;13.90;100.00;100188.11;109143;1252;60648;-63
2024/02/14 10:20:53;;;;;;;;;;;;;;;13.86;100.00;100192.31;109251;1253;77819;-63
2024/02/14 10:23:21;;;;;;;;;;;;;;;13.85;100.00;100195.58;109208;1253;68865;-65
2024/02/14 10:25:55;;;;;;;;;;;;;;;13.80;100.00;100194.63;109245;1253;75336;-71
2024/02/14 10:28:23;;;;;;;;;;;;;;;13.74;100.00;100197.22;109235;1253;63016;-66
2024/02/14 10:31:05;;;;;;;;;;;;;;;13.64;100.00;100196.20;109257;1253;61617;-64
2024/02/14 10:33:33;;;;;;;;;;;;;;;13.51;100.00;100190.94;109229;1253;78212;-63
2024/02/14 10:36:02;;;;;;;;;;;;;;;13.29;100.00;100192.75;109230;1255;69067;-64
2024/02/14 10:38:33;;;;;;;;;;;;;;;13.08;100.00;100199.78;109236;1253;74841;-63
2024/02/14 10:41:01;;;;;;;;;;;;;;;12.96;100.00;100193.21;109263;1253;60231;-62
2024/02/14 10:43:29;;;;;;;;;;;;;;;12.92;100.00;100195.34;109192;1252;61979;-61
2024/02/14 10:45:58;;;;;;;;;;;;;;;12.88;100.00;100188.41;109215;1253;77122;-62
2024/02/14 10:48:27;;;;;;;;;;;;;;;12.81;100.00;100188.04;109241;1253;67777;-60
2024/02/14 10:50:55;;;;;;;;;;;;;;;12.69;100.00;100187.66;109272;1253;74667;-62
2024/02/14 10:53:23;;;;;;;;;;;;;;;12.53;100.00;100187.93;109168;1253;61306;-65
2024/02/14 10:55:50;;;;;;;;;;;;;;;12.34;100.00;100186.36;109382;1253;59924;-61
2024/02/14 10:58:18;;;;;;;;;;;;;;;12.22;100.00;100185.90;109197;1252;77762;-60
2024/02/14 11:00:46;;;;;;;;;;;;;;;12.10;100.00;100188.40;109212;1253;69994;-61
2024/02/14 11:03:17;;;;;;;;;;;;;;;12.05;100.00;100185.40;109219;1253;74799;-62
2024/02/14 11:05:47;;;;;;;;;;;;;;;12.06;100.00;100186.60;109037;1253;61499;-64
2024/02/14 11:08:20;;;;;;;;;;;;;;;12.08;100.00;100188.83;109238;1253;62595;-60
2024/02/14 11:10:58;;;;;;;;;;;;;;;12.13;100.00;100193.67;109128;1253;77398;-60
2024/02/14 11:13:27;;;;;;;;;;;;;;;12.25;100.00;100200.76;109223;1253;68098;-68
2024/02/14 11:15:56;;;;;;;;;;;;;;;12.40;100.00;100198.36;109267;1253;72693;-61
2024/02/14 11:18:29;;;;;;;;;;;;;;;12.52;100.00;100199.40;109088;1253;62347;-61
2024/02/14 11:20:58;;;;;;;;;;;;;;;12.59;100.00;100202.36;109233;1253;60136;-63
2024/02/14 11:23:30;;;;;;;;;;;;;;;12.63;100.00;100201.89;109028;1253;209425;-67
2024/02/14 11:26:02;;;;;;;;;;;;;;;12.62;100.00;100199.52;109158;1253;69328;-59
2024/02/14 11:28:30;;;;;;;;;;;;;;;12.60;100.00;100196.36;109244;1253;74684;-60
2024/02/14 11:31:03;;;;;;;;;;;;;;;12.54;100.00;100195.14;109205;1253;60548;-60
2024/02/14 11:33:31;;;;;;;;;;;;;;;12.47;100.00;100190.17;109221;1253;61244;-60
2024/02/14 11:36:01;;;;;;;;;;;;;;;12.40;100.00;100193.98;109256;1253;76562;-60
2024/02/14 11:38:29;;;;;;;;;;;;;;;12.37;100.00;100196.38;109249;1253;69303;-62
2024/02/14 11:40:57;;;;;;;;;;;;;;;12.34;100.00;100195.27;109211;1253;73071;-59
2024/02/14 11:43:25;;;;;;;;;;;;;;;12.25;100.00;100197.27;109130;1253;61151;-64
2024/02/14 11:45:52;;;;;;;;;;;;;;;12.21;100.00;100199.58;109247;1253;60375;-60
2024/02/14 11:48:21;;;;;;;;;;;;;;;12.15;100.00;100204.16;109240;1253;77738;-60
2024/02/14 11:50:49;;;;;;;;;;;;;;;12.05;100.00;100206.66;109268;1253;68895;-60
2024/02/14 11:53:17;;;;;;;;;;;;;;;11.96;100.00;100206.77;109230;1253;74749;-66
2024/02/14 11:55:48;;;;;;;;;;;;;;;11.87;100.00;100213.75;109166;1253;62673;-59
2024/02/14 11:58:17;;;;;;;;;;;;;;;11.82;100.00;100215.23;109215;1253;60060;-59
2024/02/14 12:00:46;;;;;;;;;;;;;;;11.78;100.00;100216.77;109426;1253;77527;-59
2024/02/14 12:03:17;;;;;;;;;;;;;;;11.73;100.00;100215.14;109271;1253;66929;-59
2024/02/14 12:05:47;;;;;;;;;;;;;;;11.71;100.00;100216.25;109187;1253;76251;-60
2024/02/14 12:08:15;;;;;;;;;;;;;;;11.70;100.00;100215.84;109202;1253;62163;-59
2024/02/14 12:10:43;;;;;;;;;;;;;;;11.69;100.00;100219.48;109201;1253;60357;-59
2024/02/14 12:13:11;;;;;;;;;;;;;;;11.67;100.00;100230.45;109236;1253;77604;-61
2024/02/14 12:15:39;;;;;;;;;;;;;;;11.65;100.00;100234.80;109197;1253;67403;-66
2024/02/14 12:18:10;;;;;;;;;;;;;;;11.63;100.00;100236.40;109248;1253;74057;-59
2024/02/14 12:20:38;;;;;;;;;;;;;;;11.62;100.00;100241.60;109230;1253;62254;-61
2024/02/14 12:23:05;;;;;;;;;;;;;;;11.61;100.00;100244.98;109265;1252;60950;-59
2024/02/14 12:25:34;;;;;;;;;;;;;;;11.61;100.00;100246.38;109309;1253;79057;-67
2024/02/14 12:28:01;;;;;;;;;;;;;;;11.64;100.00;100255.23;109353;1252;71092;-60